Dares Beach, Maryland
Current Conditions -  °F | °C
As of 7:25 PM on Wednesday 28 Jan 2015 (Local Time) from K2W6 Reporting Station
Clear Clear  
Wind Chill: 26°   Ceiling: Unl
Heat Index: 32°   Visibility: 10mi
Dew Point:   Wind: 6mph
Humidity: 32%   Direction: 310°NW
Pressure: 30.3"   Gusts: NA
Location:  38.528°N, 76.5949°W
Report Text: K2W6 290025Z AUTO 31005KT 10SM CLR 00/M15 A3030 RMK AO1
Loading
Personal Weather Stations






























Interactive Weather Map New forecast layout! Learn more

10-Day Weather Forecast

Advertisements
Track Severe Weather on mobile